Marine Drive, Washington
Current Conditions -  °F | °C
As of 1:55 PM on Monday 20 Oct 2014 (Local Time) from KPWT Reporting Station
Few Clouds Few Clouds  
Wind Chill: 59°   Ceiling: Unl
Heat Index: 59°   Visibility: 10mi
Dew Point: 55°   Wind: 7mph
Humidity: 88%   Direction: 180°S
Pressure: 29.78"   Gusts: NA
Location:  47.5691°N, 122.818°W
Report Text: KPWT 202055Z AUTO 18006KT 10SM FEW095 15/13 A2978 RMK AO1 52003
Loading
Personal Weather Stations






























Interactive Weather Map
Tropical Storm Tracking
New forecast layout! Learn more

10-Day Weather Forecast

Advertisements
Track Severe Weather on mobile